Time;durP1;ratioP1;P1;durP2;ratioP2;P2;SDS_P1;SDS_P2;PMS_P1;PMS_P2;Temp;Humidity;BMP_temperature;BMP_pressure;BME280_temperature;BME280_humidity;BME280_pressure;Samples;Min_cycle;Max_cycle;Signal;HPM_P1;HPM_P2
2022/12/18 00:00:26;;;;;;;15.30;13.83;;;;;19.80;101674.00;;;;2062185;28;20241;-53
2022/12/18 00:01:28;;;;;;;16.27;14.60;;;;;19.90;101665.00;;;;2061718;28;20218;-53
2022/12/18 00:02:28;;;;;;;16.45;14.85;;;;;19.80;101671.00;;;;2060054;28;20711;-53
2022/12/18 00:03:29;;;;;;;16.17;14.57;;;;;19.80;101674.00;;;;2061840;28;20230;-53
2022/12/18 00:04:29;;;;;;;14.73;13.23;;;;;19.90;101671.00;;;;2070850;28;20225;-55
2022/12/18 00:05:29;;;;;;;14.93;13.53;;;;;19.80;101673.00;;;;2062020;28;20838;-52
2022/12/18 00:06:30;;;;;;;15.53;14.13;;;;;19.80;101681.00;;;;2053558;28;20685;-52
2022/12/18 00:07:30;;;;;;;14.80;13.40;;;;;19.70;101678.00;;;;2061990;28;20558;-53
2022/12/18 00:08:31;;;;;;;14.80;13.30;;;;;19.80;101687.00;;;;2070759;28;20305;-54
2022/12/18 00:09:31;;;;;;;14.03;12.63;;;;;19.80;101687.00;;;;2070923;28;20229;-53
2022/12/18 00:10:31;;;;;;;14.07;12.67;;;;;19.80;101687.00;;;;2070789;28;20222;-53
2022/12/18 00:11:32;;;;;;;13.53;12.23;;;;;19.80;101691.00;;;;2070788;28;20222;-53
2022/12/18 00:12:32;;;;;;;13.43;12.23;;;;;19.80;101688.00;;;;2069873;28;20281;-52
2022/12/18 00:13:32;;;;;;;14.93;13.53;;;;;19.80;101687.00;;;;2070979;28;20241;-52
2022/12/18 00:14:33;;;;;;;14.50;13.10;;;;;19.80;101694.00;;;;2068316;28;20235;-54
2022/12/18 00:15:37;;;;;;;13.60;12.30;;;;;19.80;101705.00;;;;2070813;28;20316;-52
2022/12/18 00:16:37;;;;;;;13.70;12.30;;;;;19.80;101701.00;;;;2061584;28;20223;-53
2022/12/18 00:17:37;;;;;;;14.00;12.70;;;;;19.70;101691.00;;;;2060976;28;20631;-52
2022/12/18 00:18:38;;;;;;;13.80;12.60;;;;;19.70;101699.00;;;;2070626;28;20863;-52
2022/12/18 00:19:38;;;;;;;13.33;12.03;;;;;19.70;101701.00;;;;2070790;28;20725;-53
2022/12/18 00:20:39;;;;;;;12.77;11.57;;;;;19.70;101712.00;;;;2070970;28;20206;-51
2022/12/18 00:21:39;;;;;;;12.80;11.60;;;;;19.70;101700.00;;;;2070579;28;20211;-53
2022/12/18 00:22:39;;;;;;;13.00;11.70;;;;;19.70;101710.00;;;;2069687;28;20214;-53
2022/12/18 00:23:41;;;;;;;12.73;11.43;;;;;19.70;101702.00;;;;2070611;28;20226;-51
2022/12/18 00:24:41;;;;;;;11.93;10.73;;;;;19.70;101699.00;;;;2070660;28;20225;-53
2022/12/18 00:25:41;;;;;;;12.40;11.23;;;;;19.70;101699.00;;;;2070860;28;20724;-54
2022/12/18 00:26:42;;;;;;;11.83;10.73;;;;;19.70;101694.00;;;;2070329;28;20593;-53
2022/12/18 00:27:42;;;;;;;11.80;10.60;;;;;19.70;101688.00;;;;2070486;28;20722;-53
2022/12/18 00:28:43;;;;;;;12.37;11.17;;;;;19.70;101684.00;;;;2070619;28;20218;-53
2022/12/18 00:29:44;;;;;;;12.33;11.10;;;;;19.70;101685.00;;;;2070817;28;20268;-53
2022/12/18 00:30:44;;;;;;;12.70;11.40;;;;;19.70;101692.00;;;;2070369;28;20215;-52
2022/12/18 00:31:45;;;;;;;11.23;10.07;;;;;19.60;101682.00;;;;2070147;28;20214;-52
2022/12/18 00:32:45;;;;;;;12.80;11.50;;;;;19.60;101682.00;;;;2068942;28;20210;-53
2022/12/18 00:33:45;;;;;;;12.00;10.70;;;;;19.60;101682.00;;;;2070555;28;20229;-53
2022/12/18 00:34:46;;;;;;;10.87;9.87;;;;;19.60;101683.00;;;;2070701;28;20647;-53
2022/12/18 00:35:46;;;;;;;11.10;10.00;;;;;19.60;101677.00;;;;2062684;28;20707;-53
2022/12/18 00:36:47;;;;;;;11.40;10.33;;;;;19.60;101681.00;;;;2062743;28;20714;-52
2022/12/18 00:37:47;;;;;;;10.87;9.83;;;;;19.60;101681.00;;;;2062574;28;20242;-52
2022/12/18 00:38:48;;;;;;;10.40;9.50;;;;;19.60;101682.00;;;;2062524;28;20454;-52
2022/12/18 00:39:49;;;;;;;11.20;10.10;;;;;19.60;101679.00;;;;2062487;28;20245;-53
2022/12/18 00:40:50;;;;;;;9.97;9.07;;;;;19.60;101678.00;;;;2056306;28;20591;-52
2022/12/18 00:43:09;;;;;;;11.10;10.05;;;;;19.50;101680.00;;;;2070151;28;20253;-54
2022/12/18 00:44:11;;;;;;;10.30;9.30;;;;;19.60;101680.00;;;;2070574;28;20210;-53
2022/12/18 00:45:11;;;;;;;10.52;9.52;;;;;19.60;101682.00;;;;2070465;28;20566;-54
2022/12/18 00:46:11;;;;;;;10.70;9.70;;;;;19.60;101677.00;;;;2070694;28;20212;-53
2022/12/18 00:47:12;;;;;;;10.43;9.43;;;;;19.50;101676.00;;;;2070282;28;20241;-53
2022/12/18 00:48:12;;;;;;;10.10;9.20;;;;;19.50;101678.00;;;;2070715;28;20210;-51
2022/12/18 00:49:12;;;;;;;9.67;8.67;;;;;19.50;101679.00;;;;2069979;28;20221;-52
2022/12/18 00:50:13;;;;;;;9.70;8.70;;;;;19.50;101679.00;;;;2070579;28;20211;-53
2022/12/18 00:51:13;;;;;;;10.23;9.33;;;;;19.50;101683.00;;;;2070758;28;20222;-53
2022/12/18 00:52:13;;;;;;;9.97;9.07;;;;;19.50;101681.00;;;;2069801;28;20217;-53
2022/12/18 00:53:14;;;;;;;9.97;9.03;;;;;19.50;101677.00;;;;2068764;28;20264;-53
2022/12/18 00:54:14;;;;;;;9.63;8.73;;;;;19.50;101687.00;;;;2062317;28;20218;-51
2022/12/18 00:55:14;;;;;;;9.70;8.80;;;;;19.50;101685.00;;;;2063145;28;20218;-53
2022/12/18 00:56:15;;;;;;;9.37;8.50;;;;;19.50;101665.00;;;;2062521;28;20346;-52
2022/12/18 00:57:15;;;;;;;9.73;8.73;;;;;19.50;101694.00;;;;2062543;28;20273;-52
2022/12/18 00:58:16;;;;;;;9.23;8.20;;;;;19.50;101693.00;;;;2062647;28;20558;-51
2022/12/18 00:59:17;;;;;;;10.50;9.50;;;;;19.50;101687.00;;;;2062321;28;20211;-52
2022/12/18 01:00:17;;;;;;;10.15;9.05;;;;;19.40;101683.00;;;;2062329;28;20326;-53
2022/12/18 01:01:18;;;;;;;9.67;8.77;;;;;19.50;101682.00;;;;2062188;28;20698;-54
2022/12/18 01:02:18;;;;;;;8.70;7.80;;;;;19.40;101678.00;;;;2061498;28;20285;-53
2022/12/18 01:03:18;;;;;;;9.63;8.73;;;;;19.50;101672.00;;;;2061010;28;20223;-52
2022/12/18 01:04:19;;;;;;;8.70;7.90;;;;;19.40;101667.00;;;;2061887;28;20262;-51
2022/12/18 01:05:19;;;;;;;9.13;8.23;;;;;19.40;101679.00;;;;2062288;28;20301;-51
2022/12/18 01:06:20;;;;;;;8.47;7.67;;;;;19.40;101671.00;;;;2062234;28;20222;-54
2022/12/18 01:07:20;;;;;;;8.83;8.03;;;;;19.40;101685.00;;;;2062582;28;20207;-53
2022/12/18 01:08:20;;;;;;;9.50;8.60;;;;;19.40;101674.00;;;;2062345;28;20226;-53
2022/12/18 01:09:21;;;;;;;8.57;7.77;;;;;19.40;101673.00;;;;2062398;28;20225;-52
2022/12/18 01:10:21;;;;;;;8.37;7.57;;;;;19.40;101686.00;;;;2062053;28;20214;-53
2022/12/18 01:11:21;;;;;;;9.10;8.20;;;;;19.40;101684.00;;;;2062530;28;20219;-52
2022/12/18 01:12:22;;;;;;;8.90;8.10;;;;;19.40;101684.00;;;;2061528;28;20229;-53
2022/12/18 01:13:22;;;;;;;8.53;7.73;;;;;19.40;101677.00;;;;2062247;28;20215;-53
2022/12/18 01:14:22;;;;;;;8.90;8.00;;;;;19.40;101680.00;;;;2062472;28;20253;-54
2022/12/18 01:15:23;;;;;;;9.63;8.73;;;;;19.40;101688.00;;;;2061746;28;20214;-54
2022/12/18 01:16:23;;;;;;;9.20;8.30;;;;;19.40;101682.00;;;;2062478;28;20226;-52
2022/12/18 01:17:23;;;;;;;8.90;7.90;;;;;19.40;101681.00;;;;2061797;28;20242;-51
2022/12/18 01:18:24;;;;;;;8.00;7.30;;;;;19.40;101680.00;;;;2061862;28;20214;-51
2022/12/18 01:19:24;;;;;;;8.40;7.60;;;;;19.30;101677.00;;;;2062341;28;20238;-52
2022/12/18 01:20:24;;;;;;;8.70;7.87;;;;;19.30;101681.00;;;;2062262;28;20214;-53
2022/12/18 01:21:25;;;;;;;9.43;8.50;;;;;19.30;101693.00;;;;2068181;28;20286;-52
2022/12/18 01:22:25;;;;;;;7.97;7.17;;;;;19.30;101681.00;;;;2069621;28;21798;-52
2022/12/18 01:23:25;;;;;;;9.07;8.20;;;;;19.40;101685.00;;;;2069870;28;20337;-52
2022/12/18 01:24:26;;;;;;;8.17;7.47;;;;;19.30;101681.00;;;;2063300;28;20864;-51
2022/12/18 01:25:26;;;;;;;8.27;7.47;;;;;19.30;101690.00;;;;2070355;28;20943;-52
2022/12/18 01:26:29;;;;;;;8.27;7.40;;;;;19.30;101690.00;;;;2070036;28;20591;-51
2022/12/18 01:27:29;;;;;;;8.20;7.40;;;;;19.30;101687.00;;;;2069934;28;20241;-52
2022/12/18 01:28:30;;;;;;;8.93;8.10;;;;;19.30;101682.00;;;;2061709;28;20214;-53
2022/12/18 01:29:30;;;;;;;8.67;7.87;;;;;19.30;101682.00;;;;2061628;28;20298;-52
2022/12/18 01:30:30;;;;;;;8.37;7.57;;;;;19.30;101683.00;;;;2060671;28;20223;-54
2022/12/18 01:31:32;;;;;;;8.20;7.50;;;;;19.30;101682.00;;;;2061888;28;20215;-53
2022/12/18 01:32:32;;;;;;;7.47;6.88;;;;;19.30;101678.00;;;;2052853;28;20216;-53
2022/12/18 01:33:32;;;;;;;8.70;7.90;;;;;19.30;101677.00;;;;2054329;28;20618;-52
2022/12/18 01:34:34;;;;;;;8.10;7.30;;;;;19.30;101679.00;;;;2061752;28;20238;-52
2022/12/18 01:35:40;;;;;;;7.15;6.53;;;;;19.30;101684.00;;;;2061494;28;20215;-52
2022/12/18 01:36:40;;;;;;;7.63;6.93;;;;;19.20;101682.00;;;;2069670;28;20250;-51
2022/12/18 01:37:40;;;;;;;7.03;6.43;;;;;19.20;101683.00;;;;2070354;28;20218;-51
2022/12/18 01:38:41;;;;;;;8.37;7.57;;;;;19.20;101682.00;;;;2069651;28;20228;-54
2022/12/18 01:39:41;;;;;;;8.07;7.27;;;;;19.10;101678.00;;;;2070230;28;20319;-53
2022/12/18 01:40:41;;;;;;;8.10;7.30;;;;;19.20;101681.00;;;;2070344;28;20285;-54
2022/12/18 01:43:01;;;;;;;7.30;6.60;;;;;19.20;101676.00;;;;2061532;28;20301;-53
2022/12/18 01:44:01;;;;;;;7.27;6.57;;;;;19.20;101679.00;;;;2064226;28;20921;-53
2022/12/18 01:45:13;;;;;;;7.10;6.43;;;;;19.30;101679.00;;;;2061356;28;20242;-53
2022/12/18 01:46:14;;;;;;;7.45;6.75;;;;;19.20;101675.00;;;;2062772;28;20229;-51
2022/12/18 01:47:50;;;;;;;6.87;6.27;;;;;19.20;101678.00;;;;2054338;28;20745;-54
2022/12/18 01:48:56;;;;;;;7.03;6.43;;;;;19.20;101674.00;;;;2055279;28;20214;-53
2022/12/18 01:49:57;;;;;;;7.32;6.63;;;;;19.20;101682.00;;;;2062320;28;20203;-53
2022/12/18 01:50:57;;;;;;;6.97;6.40;;;;;19.00;101682.00;;;;2070190;28;20587;-53
2022/12/18 01:51:58;;;;;;;7.43;6.77;;;;;19.20;101681.00;;;;2069352;28;20214;-52
2022/12/18 01:53:07;;;;;;;7.70;6.90;;;;;19.10;101680.00;;;;2061283;28;20273;-53
2022/12/18 01:54:07;;;;;;;6.63;6.03;;;;;19.10;101691.00;;;;2061149;28;20214;-52
2022/12/18 01:55:08;;;;;;;6.43;5.93;;;;;19.20;101684.00;;;;2070199;28;20221;-52
2022/12/18 01:56:09;;;;;;;6.93;6.23;;;;;19.20;101679.00;;;;2054219;28;20220;-51
2022/12/18 01:57:09;;;;;;;6.90;6.30;;;;;19.20;101672.00;;;;2053706;28;20220;-52
2022/12/18 01:58:09;;;;;;;7.60;6.77;;;;;19.20;101663.00;;;;2057325;28;20218;-51
2022/12/18 01:59:10;;;;;;;6.27;5.70;;;;;19.10;101664.00;;;;2053359;28;20227;-51
2022/12/18 02:00:13;;;;;;;6.87;6.20;;;;;19.10;101664.00;;;;2053679;28;20238;-54
2022/12/18 02:01:13;;;;;;;6.60;6.00;;;;;19.10;101654.00;;;;2053613;28;20270;-54
2022/12/18 02:02:14;;;;;;;7.00;6.40;;;;;19.10;101658.00;;;;2052589;28;20243;-53
2022/12/18 02:03:14;;;;;;;6.07;5.57;;;;;19.10;101658.00;;;;2037215;29;20804;-53
2022/12/18 02:04:33;;;;;;;6.60;5.87;;;;;19.10;101666.00;;;;2045634;28;20223;-54
2022/12/18 02:05:55;;;;;;;6.93;5.95;;;;;19.10;101662.00;;;;2059548;28;20235;-54
2022/12/18 02:07:30;;;;;;;6.30;5.70;;;;;19.10;101663.00;;;;2064511;28;20210;-54
2022/12/18 02:08:36;;;;;;;5.82;5.32;;;;;19.10;101661.00;;;;2036737;29;20252;-52
2022/12/18 02:09:41;;;;;;;6.60;6.00;;;;;19.00;101664.00;;;;2062337;28;20237;-53
2022/12/18 02:10:54;;;;;;;6.47;5.88;;;;;19.10;101674.00;;;;2061436;28;20591;-53
2022/12/18 02:12:12;;;;;;;6.28;5.68;;;;;19.00;101677.00;;;;2046119;28;20692;-53
2022/12/18 02:13:20;;;;;;;6.30;5.72;;;;;19.00;101672.00;;;;2063761;28;20297;-54
2022/12/18 02:14:42;;;;;;;6.07;5.47;;;;;19.10;101673.00;;;;2060993;28;20219;-52
2022/12/18 02:15:48;;;;;;;6.20;5.40;;;;;19.10;101675.00;;;;2064378;28;20303;-52
2022/12/18 02:16:58;;;;;;;6.35;5.70;;;;;19.00;101667.00;;;;2061131;28;20215;-51
2022/12/18 02:18:21;;;;;;;6.18;5.65;;;;;19.10;101676.00;;;;2053079;28;20215;-53
2022/12/18 02:19:36;;;;;;;6.30;5.70;;;;;19.00;101676.00;;;;2062956;28;20217;-53
2022/12/18 02:20:45;;;;;;;5.45;4.95;;;;;19.00;101670.00;;;;2070222;28;20296;-53
2022/12/18 02:22:08;;;;;;;6.40;5.45;;;;;19.00;101666.00;;;;2069780;28;20583;-57
2022/12/18 02:23:40;;;;;;;7.10;5.90;;;;;19.00;101667.00;;;;2049561;28;20698;-52
2022/12/18 02:24:56;;;;;;;5.85;5.28;;;;;19.00;101676.00;;;;2068243;28;20420;-54
2022/12/18 02:26:27;;;;;;;6.30;5.70;;;;;19.00;101683.00;;;;2069559;28;20214;-53
2022/12/18 02:27:29;;;;;;;6.13;5.55;;;;;19.00;101663.00;;;;2059332;28;20320;-53
2022/12/18 02:28:33;;;;;;;6.10;5.50;;;;;19.00;101673.00;;;;2047664;28;20311;-53
2022/12/18 02:29:43;;;;;;;5.43;4.88;;;;;19.00;101666.00;;;;2046857;28;20234;-52
2022/12/18 02:30:45;;;;;;;5.38;4.88;;;;;19.00;101666.00;;;;2050971;28;20278;-51
2022/12/18 02:31:50;;;;;;;5.82;5.30;;;;;19.00;101659.00;;;;2047057;28;20220;-52
2022/12/18 02:32:51;;;;;;;6.18;5.40;;;;;19.00;101667.00;;;;2055040;28;20251;-54
2022/12/18 02:33:53;;;;;;;5.53;4.93;;;;;19.00;101657.00;;;;2062512;28;20252;-53
2022/12/18 02:34:54;;;;;;;6.07;5.47;;;;;19.00;101660.00;;;;2046942;28;20212;-51
2022/12/18 02:35:54;;;;;;;6.27;5.67;;;;;19.00;101663.00;;;;2042709;28;20707;-52
2022/12/18 02:36:54;;;;;;;5.67;5.17;;;;;18.90;101656.00;;;;2061334;28;20214;-52
2022/12/18 02:37:55;;;;;;;5.90;5.40;;;;;18.90;101661.00;;;;2054262;28;20840;-53
2022/12/18 02:38:55;;;;;;;6.00;5.50;;;;;19.00;101655.00;;;;2062369;28;20211;-54
2022/12/18 02:39:56;;;;;;;6.00;5.40;;;;;19.00;101651.00;;;;2053975;28;20212;-52
2022/12/18 02:40:56;;;;;;;4.97;4.50;;;;;18.90;101651.00;;;;2046375;29;20243;-51
2022/12/18 02:41:57;;;;;;;5.53;5.00;;;;;19.00;101660.00;;;;2061593;28;20207;-52
2022/12/18 02:43:08;;;;;;;5.72;5.13;;;;;18.90;101657.00;;;;2069621;28;20728;-52
2022/12/18 02:44:10;;;;;;;5.97;5.40;;;;;19.00;101652.00;;;;2054442;28;20224;-52
2022/12/18 02:45:11;;;;;;;5.30;4.80;;;;;18.90;101661.00;;;;2054459;28;20318;-53
2022/12/18 02:46:33;;;;;;;5.10;4.60;;;;;18.90;101656.00;;;;2061071;28;20226;-52
2022/12/18 02:47:36;;;;;;;6.03;5.43;;;;;18.90;101656.00;;;;2062339;28;20313;-53
2022/12/18 02:48:37;;;;;;;5.20;4.80;;;;;18.90;101663.00;;;;2046881;28;20569;-51
2022/12/18 02:50:11;;;;;;;5.53;5.03;;;;;18.90;101651.00;;;;2046879;28;20268;-52
2022/12/18 02:51:26;;;;;;;5.32;4.82;;;;;18.90;101662.00;;;;2061780;28;20219;-54
2022/12/18 02:52:32;;;;;;;5.50;5.00;;;;;18.90;101666.00;;;;2061050;28;20222;-51
2022/12/18 02:53:39;;;;;;;5.85;5.35;;;;;18.90;101664.00;;;;2062253;28;20216;-53
2022/12/18 02:55:12;;;;;;;4.60;4.20;;;;;18.90;101670.00;;;;2054184;28;20227;-53
2022/12/18 02:56:18;;;;;;;5.00;4.50;;;;;18.90;101666.00;;;;2059882;28;20671;-52
2022/12/18 02:57:49;;;;;;;5.20;4.70;;;;;18.90;101666.00;;;;2062143;28;20229;-52
2022/12/18 02:59:02;;;;;;;5.55;4.53;;;;;18.90;101674.00;;;;2057938;28;20238;-51
2022/12/18 03:00:14;;;;;;;5.30;4.80;;;;;18.80;101676.00;;;;2062370;28;20223;-52
2022/12/18 03:01:25;;;;;;;6.93;4.90;;;;;18.90;101676.00;;;;2057176;28;20655;-53
2022/12/18 03:02:29;;;;;;;5.47;4.88;;;;;18.90;101673.00;;;;2052983;28;20219;-52
2022/12/18 03:03:47;;;;;;;5.30;4.57;;;;;18.80;101670.00;;;;2055910;28;20235;-52
2022/12/18 03:04:51;;;;;;;5.35;4.70;;;;;18.80;101670.00;;;;2054549;28;20600;-52
2022/12/18 03:05:52;;;;;;;5.00;4.50;;;;;18.80;101669.00;;;;2055792;28;20216;-52
2022/12/18 03:06:55;;;;;;;5.63;4.82;;;;;18.80;101670.00;;;;2062319;28;20222;-54
2022/12/18 03:08:10;;;;;;;5.05;4.55;;;;;18.80;101665.00;;;;2071381;28;20622;-52
2022/12/18 03:09:14;;;;;;;5.20;4.70;;;;;18.80;101664.00;;;;2062389;28;20206;-54
2022/12/18 03:10:19;;;;;;;5.05;4.55;;;;;18.80;101675.00;;;;2062190;28;20207;-52
2022/12/18 03:12:22;;;;;;;5.00;4.60;;;;;18.80;101671.00;;;;2061808;28;20219;-52
2022/12/18 03:12:44;;;;;;;5.22;4.72;;;;;18.80;101672.00;;;;2061184;28;20245;-52
2022/12/18 03:13:47;;;;;;;5.47;4.97;;;;;18.80;101665.00;;;;2062506;28;20305;-53
2022/12/18 03:14:59;;;;;;;5.13;4.65;;;;;18.80;101672.00;;;;2054498;28;20223;-53
2022/12/18 03:16:00;;;;;;;4.60;4.15;;;;;18.70;101662.00;;;;2054492;28;20704;-53
2022/12/18 03:17:03;;;;;;;5.40;4.90;;;;;18.80;101657.00;;;;2047810;28;20231;-52
2022/12/18 03:18:06;;;;;;;5.07;4.57;;;;;18.80;101656.00;;;;2062735;28;20742;-52
2022/12/18 03:19:11;;;;;;;5.25;4.75;;;;;18.80;101653.00;;;;2062674;28;20213;-53
2022/12/18 03:20:17;;;;;;;5.15;4.72;;;;;18.70;101614.00;;;;2054999;28;20208;-52
2022/12/18 03:21:19;;;;;;;4.90;4.22;;;;;18.70;101655.00;;;;2063261;28;20290;-51
2022/12/18 03:22:20;;;;;;;4.88;4.43;;;;;18.80;101652.00;;;;2061522;28;20274;-53
2022/12/18 03:23:22;;;;;;;5.07;4.40;;;;;18.70;101655.00;;;;2062135;28;20231;-51
2022/12/18 03:24:23;;;;;;;5.38;4.88;;;;;18.70;101649.00;;;;2054419;28;20222;-52
2022/12/18 03:25:23;;;;;;;4.77;4.23;;;;;18.80;101646.00;;;;2046432;28;20834;-52
2022/12/18 03:26:25;;;;;;;4.93;4.53;;;;;18.80;101646.00;;;;2045764;28;20227;-51
2022/12/18 03:27:25;;;;;;;4.43;4.03;;;;;18.80;101648.00;;;;2046403;28;20219;-54
2022/12/18 03:28:27;;;;;;;5.13;4.63;;;;;18.80;101649.00;;;;2054169;28;20310;-54
2022/12/18 03:29:33;;;;;;;5.32;4.43;;;;;18.70;101645.00;;;;2054502;28;20224;-52
2022/12/18 03:30:34;;;;;;;5.43;4.93;;;;;18.80;101607.00;;;;2054129;28;20243;-53
2022/12/18 03:31:34;;;;;;;5.43;4.93;;;;;18.80;101637.00;;;;2046882;28;20729;-52
2022/12/18 03:32:49;;;;;;;4.50;4.10;;;;;18.80;101628.00;;;;2053550;28;20215;-52
2022/12/18 03:33:54;;;;;;;5.28;4.78;;;;;18.80;101640.00;;;;2061855;28;20214;-53
2022/12/18 03:34:55;;;;;;;4.60;4.20;;;;;18.70;101637.00;;;;2063106;28;20243;-53
2022/12/18 03:35:55;;;;;;;5.13;4.63;;;;;18.70;101641.00;;;;2062496;28;20207;-52
2022/12/18 03:36:56;;;;;;;5.40;4.43;;;;;18.70;101642.00;;;;2046627;28;20507;-52
2022/12/18 03:37:56;;;;;;;4.93;4.43;;;;;18.70;101640.00;;;;2053511;28;20291;-56
2022/12/18 03:38:58;;;;;;;4.90;4.50;;;;;18.70;101653.00;;;;2070904;28;20221;-55
2022/12/18 03:39:58;;;;;;;5.18;4.68;;;;;18.70;101650.00;;;;2061151;28;20207;-52
2022/12/18 03:41:04;;;;;;;4.30;3.90;;;;;18.70;101646.00;;;;2061353;28;20622;-53
2022/12/18 03:42:16;;;;;;;4.82;4.15;;;;;18.70;101644.00;;;;2061507;28;20223;-53
2022/12/18 03:43:32;;;;;;;4.40;4.00;;;;;18.70;101649.00;;;;2054141;28;20245;-53
2022/12/18 03:44:57;;;;;;;5.20;4.55;;;;;18.70;101652.00;;;;2049129;28;20277;-53
2022/12/18 03:46:06;;;;;;;5.40;4.03;;;;;18.70;101645.00;;;;2062482;28;20210;-53
2022/12/18 03:47:10;;;;;;;6.43;4.55;;;;;18.70;101651.00;;;;2062458;28;20238;-52
2022/12/18 03:48:26;;;;;;;4.60;3.83;;;;;18.60;101646.00;;;;2062267;28;20211;-52
2022/12/18 03:49:36;;;;;;;5.00;4.50;;;;;18.60;101640.00;;;;2054154;28;20359;-51
2022/12/18 03:50:56;;;;;;;4.60;4.20;;;;;18.60;101643.00;;;;2049538;28;20215;-52
2022/12/18 03:52:10;;;;;;;6.65;4.72;;;;;18.60;101643.00;;;;2055900;28;20215;-52
2022/12/18 03:53:17;;;;;;;7.25;4.10;;;;;18.60;101639.00;;;;2044857;28;20224;-53
2022/12/18 03:54:18;;;;;;;4.47;4.07;;;;;18.60;101652.00;;;;2047204;28;20212;-52
2022/12/18 03:55:18;;;;;;;5.10;4.63;;;;;18.60;101649.00;;;;2045490;28;20688;-52
2022/12/18 03:56:18;;;;;;;5.27;4.77;;;;;18.70;101645.00;;;;2054312;28;20223;-52
2022/12/18 03:57:23;;;;;;;4.30;3.90;;;;;18.70;101650.00;;;;2046380;29;20583;-52
2022/12/18 03:58:24;;;;;;;4.55;4.15;;;;;18.60;101651.00;;;;2053056;28;20294;-52
2022/12/18 03:59:25;;;;;;;4.30;3.90;;;;;18.60;101645.00;;;;2054258;28;20723;-53
2022/12/18 04:00:25;;;;;;;4.90;4.40;;;;;18.60;101643.00;;;;2046060;28;20235;-53
2022/12/18 04:01:30;;;;;;;4.67;4.00;;;;;18.60;101644.00;;;;2054216;28;20629;-52
2022/12/18 04:02:30;;;;;;;4.40;4.00;;;;;18.60;101641.00;;;;2045681;28;20531;-52
2022/12/18 04:03:31;;;;;;;4.53;4.10;;;;;18.60;101633.00;;;;2046121;28;20260;-53
2022/12/18 04:04:31;;;;;;;4.60;4.20;;;;;18.60;101644.00;;;;2062257;28;20230;-53
2022/12/18 04:05:32;;;;;;;4.43;4.03;;;;;18.60;101639.00;;;;2054121;28;20986;-52
2022/12/18 04:06:34;;;;;;;4.50;4.10;;;;;18.60;101637.00;;;;2045979;29;20231;-52
2022/12/18 04:07:35;;;;;;;4.60;4.20;;;;;18.60;101645.00;;;;2054733;28;20231;-52
2022/12/18 04:08:35;;;;;;;4.53;4.13;;;;;18.60;101640.00;;;;2062230;28;20310;-51
2022/12/18 04:09:36;;;;;;;4.20;3.60;;;;;18.60;101641.00;;;;2053847;28;20215;-53
2022/12/18 04:10:36;;;;;;;4.23;3.83;;;;;18.60;101644.00;;;;2044364;28;20231;-53
2022/12/18 04:11:36;;;;;;;4.67;4.27;;;;;18.60;101642.00;;;;2046253;28;20238;-54
2022/12/18 04:12:37;;;;;;;4.73;4.23;;;;;18.60;101635.00;;;;2061341;28;20218;-52
2022/12/18 04:13:37;;;;;;;4.17;3.77;;;;;18.60;101647.00;;;;2062127;28;20222;-52
2022/12/18 04:14:37;;;;;;;4.63;4.23;;;;;18.60;101642.00;;;;2070805;28;20218;-50
2022/12/18 04:15:38;;;;;;;4.43;4.03;;;;;18.60;101630.00;;;;2062222;28;20215;-51
2022/12/18 04:16:38;;;;;;;4.20;3.80;;;;;18.60;101638.00;;;;2038007;29;20216;-53
2022/12/18 04:17:39;;;;;;;4.20;3.80;;;;;18.50;101642.00;;;;2045096;29;20223;-52
2022/12/18 04:18:39;;;;;;;4.30;3.90;;;;;18.50;101644.00;;;;2054055;28;20806;-50
2022/12/18 04:19:40;;;;;;;4.40;4.00;;;;;18.50;101646.00;;;;2061354;28;20486;-51
2022/12/18 04:20:40;;;;;;;4.77;4.20;;;;;18.50;101646.00;;;;2070134;28;20257;-52
2022/12/18 04:21:40;;;;;;;3.97;3.57;;;;;18.50;101646.00;;;;2070454;28;20210;-53
2022/12/18 04:22:41;;;;;;;4.00;3.70;;;;;18.50;101638.00;;;;2061285;28;20221;-52
2022/12/18 04:23:41;;;;;;;4.30;3.90;;;;;18.50;101635.00;;;;2062040;28;20227;-53
2022/12/18 04:24:41;;;;;;;4.50;4.10;;;;;18.50;101639.00;;;;2061904;28;20297;-52
2022/12/18 04:25:42;;;;;;;3.97;3.60;;;;;18.50;101631.00;;;;2053715;28;20303;-51
2022/12/18 04:26:42;;;;;;;4.40;3.80;;;;;18.50;101636.00;;;;2053494;28;20919;-52
2022/12/18 04:27:42;;;;;;;3.53;3.23;;;;;18.50;101641.00;;;;2062404;28;20760;-53
2022/12/18 04:28:43;;;;;;;4.90;4.37;;;;;18.50;101640.00;;;;2061840;28;20730;-52
2022/12/18 04:29:43;;;;;;;3.90;3.50;;;;;18.50;101641.00;;;;2062605;28;20219;-53
2022/12/18 04:30:43;;;;;;;4.33;3.70;;;;;18.50;101640.00;;;;2062372;28;20220;-53
2022/12/18 04:31:44;;;;;;;4.13;3.73;;;;;18.50;101633.00;;;;2062267;28;20248;-53
2022/12/18 04:32:44;;;;;;;4.30;3.67;;;;;18.50;101641.00;;;;2062132;28;20210;-52
2022/12/18 04:33:44;;;;;;;4.03;3.63;;;;;18.50;101637.00;;;;2062495;28;20207;-52
2022/12/18 04:34:45;;;;;;;4.73;3.83;;;;;18.50;101639.00;;;;2062557;28;20213;-52
2022/12/18 04:35:45;;;;;;;3.83;3.53;;;;;18.50;101631.00;;;;2062562;28;20741;-53
2022/12/18 04:36:45;;;;;;;4.30;3.90;;;;;18.50;101646.00;;;;2062592;28;20215;-52
2022/12/18 04:37:46;;;;;;;3.90;3.50;;;;;18.50;101642.00;;;;2062171;28;20699;-53
2022/12/18 04:38:46;;;;;;;3.70;3.40;;;;;18.50;101637.00;;;;2062315;28;20245;-51
2022/12/18 04:39:46;;;;;;;3.73;3.40;;;;;18.50;101637.00;;;;2062621;28;20222;-51
2022/12/18 04:40:47;;;;;;;4.27;3.87;;;;;18.50;101639.00;;;;2062759;28;20217;-52
2022/12/18 04:41:47;;;;;;;4.40;4.00;;;;;18.50;101631.00;;;;2062436;28;20615;-55
2022/12/18 04:42:47;;;;;;;4.60;4.20;;;;;18.50;101630.00;;;;2062196;28;20589;-52
2022/12/18 04:43:48;;;;;;;4.90;4.50;;;;;18.50;101639.00;;;;2062161;28;20226;-51
2022/12/18 04:44:48;;;;;;;4.07;3.67;;;;;18.40;101628.00;;;;2062780;28;20242;-52
2022/12/18 04:45:49;;;;;;;4.27;3.87;;;;;18.50;101629.00;;;;2062857;28;20262;-52
2022/12/18 04:46:49;;;;;;;6.03;3.47;;;;;18.40;101627.00;;;;2062817;28;20618;-51
2022/12/18 04:47:49;;;;;;;4.20;3.83;;;;;18.50;101629.00;;;;2062192;28;20707;-52
2022/12/18 04:48:50;;;;;;;3.90;3.27;;;;;18.40;101636.00;;;;2062793;28;20210;-52
2022/12/18 04:49:50;;;;;;;4.43;3.90;;;;;18.40;101632.00;;;;2062761;28;20211;-52
2022/12/18 04:50:50;;;;;;;4.50;3.50;;;;;18.40;101630.00;;;;2062593;28;20227;-52
2022/12/18 04:51:51;;;;;;;4.47;4.07;;;;;18.40;101618.00;;;;2061674;28;20257;-52
2022/12/18 04:52:52;;;;;;;3.90;3.40;;;;;18.40;101612.00;;;;2061966;28;20237;-53
2022/12/18 04:53:52;;;;;;;4.03;3.47;;;;;18.40;101621.00;;;;2062342;28;20469;-51
2022/12/18 04:54:52;;;;;;;4.83;3.70;;;;;18.40;101609.00;;;;2053947;28;20212;-52
2022/12/18 04:56:22;;;;;;;4.00;3.60;;;;;18.30;101623.00;;;;2054679;28;20596;-53
2022/12/18 04:57:23;;;;;;;3.70;3.40;;;;;18.40;101617.00;;;;2050313;28;20217;-53
2022/12/18 04:58:23;;;;;;;3.80;3.50;;;;;18.40;101624.00;;;;2070368;28;20571;-53
2022/12/18 04:59:23;;;;;;;4.10;3.70;;;;;18.40;101619.00;;;;2070744;28;20256;-52
2022/12/18 05:00:24;;;;;;;4.10;3.70;;;;;18.40;101625.00;;;;2062303;28;20222;-52
2022/12/18 05:01:24;;;;;;;3.80;3.40;;;;;18.40;101624.00;;;;2062267;28;20238;-52
2022/12/18 05:02:24;;;;;;;4.10;3.43;;;;;18.40;101619.00;;;;2068869;28;20217;-51
2022/12/18 05:03:25;;;;;;;3.93;3.53;;;;;18.40;101629.00;;;;2069725;28;20225;-52
2022/12/18 05:04:25;;;;;;;3.60;3.30;;;;;18.40;101625.00;;;;2065390;28;20710;-53
2022/12/18 05:05:25;;;;;;;4.30;3.90;;;;;18.40;101623.00;;;;2061665;28;20718;-52
2022/12/18 05:06:26;;;;;;;3.83;3.33;;;;;18.30;101617.00;;;;2061781;28;20219;-52
2022/12/18 05:07:26;;;;;;;4.27;3.87;;;;;18.30;101625.00;;;;2061303;28;20246;-51
2022/12/18 05:08:26;;;;;;;4.50;4.10;;;;;18.40;101617.00;;;;2061797;28;20222;-52
2022/12/18 05:09:27;;;;;;;3.33;3.03;;;;;18.40;101617.00;;;;2061676;28;20214;-51
2022/12/18 05:10:27;;;;;;;4.23;3.27;;;;;18.40;101622.00;;;;2062388;28;20217;-52
2022/12/18 05:11:27;;;;;;;3.73;3.43;;;;;18.40;101616.00;;;;2062273;28;20218;-53
2022/12/18 05:12:28;;;;;;;4.00;3.50;;;;;18.30;101614.00;;;;2061165;28;20215;-52
2022/12/18 05:13:28;;;;;;;4.50;3.50;;;;;18.30;101613.00;;;;2061402;28;20689;-51
2022/12/18 05:14:29;;;;;;;3.30;3.00;;;;;18.30;101607.00;;;;2061643;28;20668;-51
2022/12/18 05:15:30;;;;;;;3.63;3.13;;;;;18.30;101619.00;;;;2062170;28;20416;-52